createdAt,value
2018-09-13T00:00:35.596Z,3.50
2018-09-13T00:03:04.924Z,3.37
2018-09-13T00:05:33.258Z,4.00
2018-09-13T00:08:01.668Z,3.77
2018-09-13T00:10:30.249Z,3.50
2018-09-13T00:12:58.588Z,3.50
2018-09-13T00:15:27.574Z,3.60
2018-09-13T00:17:55.950Z,3.43
2018-09-13T00:20:24.328Z,3.27
2018-09-13T00:22:52.652Z,3.20
2018-09-13T00:25:21.021Z,3.90
2018-09-13T00:27:50.063Z,3.60
2018-09-13T00:30:18.399Z,3.30
2018-09-13T00:32:46.889Z,2.53
2018-09-13T00:35:15.230Z,2.47
2018-09-13T00:37:43.716Z,2.60
2018-09-13T00:40:12.711Z,3.17
2018-09-13T00:42:41.179Z,3.17
2018-09-13T00:45:09.679Z,2.97
2018-09-13T00:47:42.452Z,2.70
2018-09-13T00:50:11.334Z,3.07
2018-09-13T00:52:39.715Z,2.57
2018-09-13T00:55:08.255Z,2.60
2018-09-13T00:57:37.320Z,2.97
2018-09-13T01:00:06.257Z,2.93
2018-09-13T01:02:34.749Z,2.97
2018-09-13T01:05:03.314Z,3.10
2018-09-13T01:07:31.747Z,2.80
2018-09-13T01:10:00.703Z,2.90
2018-09-13T01:12:29.247Z,3.17
2018-09-13T01:14:57.553Z,3.00
2018-09-13T01:17:25.995Z,2.90
2018-09-13T01:19:55.126Z,3.47
2018-09-13T01:22:24.001Z,3.50
2018-09-13T01:24:55.871Z,3.47
2018-09-13T01:27:25.396Z,3.40
2018-09-13T01:29:53.960Z,2.97
2018-09-13T01:32:22.384Z,3.17
2018-09-13T01:34:50.886Z,3.40
2018-09-13T01:37:19.284Z,2.70
2018-09-13T01:39:48.510Z,2.83
2018-09-13T01:42:17.122Z,3.60
2018-09-13T01:44:45.449Z,2.93
2018-09-13T01:47:14.851Z,3.53
2018-09-13T01:49:43.281Z,3.40
2018-09-13T01:52:11.956Z,3.20
2018-09-13T01:54:40.329Z,2.80
2018-09-13T01:57:09.714Z,2.70
2018-09-13T01:59:38.128Z,3.20
2018-09-13T02:02:06.665Z,3.30
2018-09-13T02:04:35.108Z,3.33
2018-09-13T02:07:03.699Z,3.00
2018-09-13T02:09:32.411Z,3.30
2018-09-13T02:12:00.837Z,2.90
2018-09-13T02:14:29.361Z,2.83
2018-09-13T02:16:57.699Z,3.13
2018-09-13T02:19:26.110Z,3.17
2018-09-13T02:21:54.734Z,3.37
2018-09-13T02:24:25.180Z,3.17
2018-09-13T02:26:53.583Z,3.30
2018-09-13T02:29:22.002Z,3.47
2018-09-13T02:31:50.430Z,4.00
2018-09-13T02:34:18.989Z,4.10
2018-09-13T02:36:47.496Z,3.90
2018-09-13T02:39:15.921Z,4.40
2018-09-13T02:41:44.416Z,4.00
2018-09-13T02:44:12.849Z,4.47
2018-09-13T02:46:41.419Z,3.40
2018-09-13T02:49:10.501Z,4.37
2018-09-13T02:51:39.061Z,4.90
2018-09-13T02:54:08.203Z,4.67
2018-09-13T02:56:36.509Z,4.10
2018-09-13T02:59:05.443Z,4.37
2018-09-13T03:01:33.836Z,3.90
2018-09-13T03:04:02.433Z,3.90
2018-09-13T03:06:30.768Z,3.63
2018-09-13T03:08:59.279Z,4.20
2018-09-13T03:11:27.593Z,3.63
2018-09-13T03:13:56.056Z,3.60
2018-09-13T03:16:24.587Z,4.50
2018-09-13T03:18:52.988Z,3.80
2018-09-13T03:21:21.583Z,3.73
2018-09-13T03:23:50.010Z,3.93
2018-09-13T03:26:18.557Z,3.43
2018-09-13T03:28:46.977Z,3.60
2018-09-13T03:31:15.403Z,3.73
2018-09-13T03:33:43.844Z,4.10
2018-09-13T03:36:12.322Z,3.47
2018-09-13T03:38:40.972Z,3.73
2018-09-13T03:41:09.481Z,4.00
2018-09-13T03:43:38.700Z,4.03
2018-09-13T03:46:07.250Z,3.70
2018-09-13T03:48:35.796Z,3.40
2018-09-13T03:51:04.436Z,3.30
2018-09-13T03:53:32.937Z,3.70
2018-09-13T03:56:01.383Z,4.10
2018-09-13T03:58:30.002Z,3.47
2018-09-13T04:00:58.407Z,3.60
2018-09-13T04:03:27.258Z,3.53
2018-09-13T04:05:55.769Z,3.53
2018-09-13T04:08:24.241Z,3.43
2018-09-13T04:10:52.939Z,3.23
2018-09-13T04:13:21.425Z,3.10
2018-09-13T04:15:50.146Z,3.50
2018-09-13T04:18:18.556Z,2.80
2018-09-13T04:20:47.096Z,3.10
2018-09-13T04:23:15.474Z,3.37
2018-09-13T04:25:43.875Z,3.10
2018-09-13T04:28:12.503Z,3.10
2018-09-13T04:30:40.857Z,2.93
2018-09-13T04:33:09.947Z,3.17
2018-09-13T04:35:38.407Z,2.90
2018-09-13T04:38:06.864Z,3.10
2018-09-13T04:40:35.824Z,3.20
2018-09-13T04:43:05.213Z,3.20
2018-09-13T04:45:33.634Z,3.07
2018-09-13T04:48:02.160Z,3.50
2018-09-13T04:50:30.635Z,3.40
2018-09-13T04:52:59.057Z,2.90
2018-09-13T04:55:27.493Z,3.00
2018-09-13T04:57:55.869Z,2.87
2018-09-13T05:00:24.345Z,2.90
2018-09-13T05:02:52.761Z,3.20
2018-09-13T05:05:21.284Z,3.10
2018-09-13T05:07:49.667Z,2.90
2018-09-13T05:10:18.171Z,3.07
2018-09-13T05:12:46.920Z,2.83
2018-09-13T05:15:15.299Z,2.90
2018-09-13T05:17:44.056Z,2.90
2018-09-13T05:20:12.462Z,3.03
2018-09-13T05:22:41.050Z,2.90
2018-09-13T05:25:10.220Z,2.97
2018-09-13T05:27:38.630Z,2.90
2018-09-13T05:30:08.002Z,3.03
2018-09-13T05:32:36.479Z,3.53
2018-09-13T05:35:06.439Z,3.27
2018-09-13T05:37:35.242Z,4.60
2018-09-13T05:40:03.657Z,2.57
2018-09-13T05:42:32.261Z,2.70
2018-09-13T05:45:02.213Z,3.37
2018-09-13T05:47:31.222Z,2.70
2018-09-13T05:49:59.760Z,2.60
2018-09-13T05:52:28.338Z,2.53
2018-09-13T05:54:57.000Z,2.93
2018-09-13T05:57:25.511Z,2.63
2018-09-13T05:59:54.387Z,2.30
2018-09-13T06:02:23.298Z,2.33
2018-09-13T06:04:52.229Z,2.23
2018-09-13T06:07:20.756Z,2.90
2018-09-13T06:09:49.109Z,2.50
2018-09-13T06:12:17.718Z,2.27
2018-09-13T06:14:46.302Z,2.47
2018-09-13T06:17:14.790Z,2.40
2018-09-13T06:19:43.372Z,2.40
2018-09-13T06:22:11.981Z,2.90
2018-09-13T06:24:40.674Z,2.63
2018-09-13T06:27:09.109Z,2.10
2018-09-13T06:29:38.309Z,2.30
2018-09-13T06:32:09.885Z,2.37
2018-09-13T06:34:38.454Z,2.20
2018-09-13T06:37:07.369Z,2.20
2018-09-13T06:39:35.792Z,1.97
2018-09-13T06:42:04.275Z,2.33
2018-09-13T06:44:32.862Z,2.40
2018-09-13T06:47:01.823Z,2.07
2018-09-13T06:49:30.229Z,2.20
2018-09-13T06:51:58.630Z,2.23
2018-09-13T06:54:27.069Z,3.50
2018-09-13T06:56:55.945Z,2.60
2018-09-13T06:59:24.432Z,2.60
2018-09-13T07:01:52.900Z,2.17
2018-09-13T07:04:21.226Z,2.40
2018-09-13T07:06:49.692Z,2.00
2018-09-13T07:09:18.838Z,1.90
2018-09-13T07:11:47.315Z,2.30
2018-09-13T07:14:15.688Z,2.20
2018-09-13T07:16:44.222Z,1.80
2018-09-13T07:19:12.958Z,2.30
2018-09-13T07:21:41.432Z,2.03
2018-09-13T07:24:09.977Z,2.60
2018-09-13T07:26:38.454Z,2.83
2018-09-13T07:29:06.843Z,2.70
2018-09-13T07:31:35.365Z,2.60
2018-09-13T07:34:04.799Z,2.20
2018-09-13T07:36:33.278Z,2.60
2018-09-13T07:39:01.755Z,2.80
2018-09-13T07:41:30.480Z,2.23
2018-09-13T07:43:59.184Z,2.10
2018-09-13T07:46:27.868Z,2.57
2018-09-13T07:48:56.738Z,2.57
2018-09-13T07:51:25.115Z,2.17
2018-09-13T07:53:54.041Z,2.03
2018-09-13T07:56:22.443Z,2.10
2018-09-13T07:58:51.196Z,2.83
2018-09-13T08:01:20.010Z,2.00
2018-09-13T08:03:48.530Z,1.97
2018-09-13T08:06:17.211Z,2.00
2018-09-13T08:08:46.105Z,2.30
2018-09-13T08:11:15.643Z,2.80
2018-09-13T08:13:44.325Z,2.03
2018-09-13T08:16:13.298Z,1.90
2018-09-13T08:18:41.880Z,2.00
2018-09-13T08:21:10.333Z,2.20
2018-09-13T08:23:38.867Z,2.33
2018-09-13T08:26:07.958Z,2.40
2018-09-13T08:28:36.366Z,2.10
2018-09-13T08:31:05.310Z,2.20
2018-09-13T08:33:35.042Z,2.47
2018-09-13T08:36:03.729Z,1.53
2018-09-13T08:38:32.383Z,1.93
2018-09-13T08:41:00.857Z,1.50
2018-09-13T08:43:30.502Z,1.40
2018-09-13T08:45:59.383Z,1.60
2018-09-13T08:48:28.307Z,1.63
2018-09-13T08:50:56.972Z,1.90
2018-09-13T08:53:25.442Z,1.83
2018-09-13T08:55:53.988Z,1.83
2018-09-13T08:58:22.663Z,1.57
2018-09-13T09:00:51.941Z,1.60
2018-09-13T09:03:20.184Z,1.50
2018-09-13T09:05:48.886Z,1.63
2018-09-13T09:08:17.493Z,1.50
2018-09-13T09:10:46.176Z,1.60
2018-09-13T09:13:15.006Z,1.77
2018-09-13T09:15:44.272Z,1.70
2018-09-13T09:18:12.764Z,1.70
2018-09-13T09:20:41.554Z,1.60
2018-09-13T09:23:10.137Z,1.30
2018-09-13T09:25:38.985Z,1.40
2018-09-13T09:28:07.710Z,1.20
2018-09-13T09:30:36.360Z,1.20
2018-09-13T09:33:05.364Z,1.30
2018-09-13T09:35:34.319Z,1.23
2018-09-13T09:38:03.780Z,2.03
2018-09-13T09:40:32.270Z,1.60
2018-09-13T09:43:00.973Z,1.13
2018-09-13T09:45:29.586Z,1.53
2018-09-13T09:47:58.318Z,1.40
2018-09-13T09:50:27.118Z,1.20
2018-09-13T09:52:55.789Z,1.80
2018-09-13T09:55:24.700Z,1.43
2018-09-13T09:57:53.778Z,1.70
2018-09-13T10:00:28.217Z,1.20
2018-09-13T10:02:57.337Z,1.43
2018-09-13T10:05:26.121Z,1.07
2018-09-13T10:07:54.648Z,1.10
2018-09-13T10:10:23.279Z,1.40
2018-09-13T10:12:51.904Z,1.50
2018-09-13T10:15:25.764Z,1.30
2018-09-13T10:17:59.473Z,1.60
2018-09-13T10:20:34.746Z,1.43
2018-09-13T10:23:08.678Z,1.37
2018-09-13T10:25:42.356Z,1.50
2018-09-13T10:28:16.677Z,1.60
2018-09-13T10:30:50.425Z,1.57
2018-09-13T10:33:24.094Z,1.40
2018-09-13T10:36:05.156Z,1.50
2018-09-13T10:40:43.268Z,1.43
2018-09-13T10:43:17.576Z,1.37
2018-09-13T10:45:51.064Z,1.50
2018-09-13T10:48:25.711Z,1.97
2018-09-13T10:51:00.278Z,0.97
2018-09-13T10:53:31.925Z,1.60
2018-09-13T10:56:00.637Z,1.13
2018-09-13T10:58:29.384Z,1.50
2018-09-13T11:00:58.183Z,1.57
2018-09-13T11:03:26.683Z,1.33
2018-09-13T11:05:55.044Z,1.20
2018-09-13T11:08:23.840Z,1.20
2018-09-13T11:10:53.552Z,1.50
2018-09-13T11:13:32.409Z,1.60
2018-09-13T11:16:01.371Z,2.00
2018-09-13T11:18:29.774Z,1.30
2018-09-13T11:20:58.421Z,1.90
2018-09-13T11:23:27.025Z,1.37
2018-09-13T11:25:56.044Z,1.33
2018-09-13T11:28:24.853Z,1.10
2018-09-13T11:30:59.100Z,1.23
2018-09-13T11:33:27.890Z,1.30
2018-09-13T11:35:56.308Z,1.53
2018-09-13T11:38:26.185Z,1.40
2018-09-13T11:40:55.001Z,1.10
2018-09-13T11:43:23.721Z,1.40
2018-09-13T11:45:52.862Z,1.10
2018-09-13T11:48:21.460Z,1.20
2018-09-13T11:50:50.292Z,1.47
2018-09-13T11:53:18.726Z,1.20
2018-09-13T11:55:47.273Z,1.43
2018-09-13T11:58:16.512Z,1.87
2018-09-13T12:00:45.100Z,1.23
2018-09-13T12:03:14.830Z,1.23
2018-09-13T12:05:43.201Z,1.20
2018-09-13T12:08:11.725Z,1.20
2018-09-13T12:10:40.339Z,1.37
2018-09-13T12:13:08.919Z,1.30
2018-09-13T12:15:37.521Z,1.20
2018-09-13T12:18:06.322Z,1.20
2018-09-13T12:20:35.025Z,1.53
2018-09-13T12:23:03.814Z,1.70
2018-09-13T12:25:32.310Z,1.90
2018-09-13T12:28:00.646Z,1.57
2018-09-13T12:30:29.870Z,1.63
2018-09-13T12:32:58.377Z,1.30
2018-09-13T12:35:27.425Z,1.37
2018-09-13T12:37:56.009Z,1.30
2018-09-13T12:40:24.728Z,1.10
2018-09-13T12:42:54.023Z,2.83
2018-09-13T12:45:22.712Z,1.60
2018-09-13T12:47:51.046Z,1.47
2018-09-13T12:50:20.283Z,1.57
2018-09-13T12:52:49.201Z,1.10
2018-09-13T12:55:18.512Z,1.20
2018-09-13T12:57:47.483Z,1.60
2018-09-13T13:00:17.297Z,1.60
2018-09-13T13:02:47.127Z,1.57
2018-09-13T13:05:15.651Z,1.33
2018-09-13T13:07:48.889Z,1.93
2018-09-13T13:10:18.147Z,1.70
2018-09-13T13:12:47.389Z,1.50
2018-09-13T13:15:16.141Z,1.53
2018-09-13T13:17:45.538Z,1.70
2018-09-13T13:20:14.266Z,1.80
2018-09-13T13:22:42.752Z,1.40
2018-09-13T13:25:11.130Z,1.60
2018-09-13T13:27:40.593Z,1.30
2018-09-13T13:30:09.242Z,1.60
2018-09-13T13:32:38.404Z,1.93
2018-09-13T13:35:06.891Z,1.57
2018-09-13T13:37:35.755Z,1.83
2018-09-13T13:40:04.612Z,1.40
2018-09-13T13:42:33.863Z,1.30
2018-09-13T13:45:02.310Z,1.23
2018-09-13T13:47:31.139Z,1.70
2018-09-13T13:49:59.914Z,1.60
2018-09-13T13:52:28.302Z,1.40
2018-09-13T13:54:57.442Z,1.50
2018-09-13T13:57:25.969Z,1.60
2018-09-13T13:59:54.550Z,1.60
2018-09-13T14:02:23.733Z,1.30
2018-09-13T14:04:53.056Z,1.90
2018-09-13T14:07:21.801Z,1.60
2018-09-13T14:09:50.422Z,2.27
2018-09-13T14:12:19.431Z,1.97
2018-09-13T14:14:49.255Z,1.13
2018-09-13T14:17:18.315Z,1.40
2018-09-13T14:19:47.497Z,1.70
2018-09-13T14:22:16.503Z,1.77
2018-09-13T14:24:45.270Z,2.43
2018-09-13T14:27:13.847Z,1.83
2018-09-13T14:29:42.961Z,1.73
2018-09-13T14:32:11.759Z,1.87
2018-09-13T14:34:40.545Z,1.50
2018-09-13T14:37:09.251Z,1.80
2018-09-13T14:39:38.841Z,1.90
2018-09-13T14:42:08.341Z,1.60
2018-09-13T14:44:37.119Z,1.47
2018-09-13T14:47:07.127Z,1.53
2018-09-13T14:49:36.451Z,1.40
2018-09-13T14:52:05.046Z,1.73
2018-09-13T14:54:33.783Z,1.90
2018-09-13T14:57:02.564Z,1.70
2018-09-13T14:59:31.526Z,2.10
2018-09-13T15:02:00.561Z,1.83
2018-09-13T15:04:31.253Z,1.37
2018-09-13T15:07:01.960Z,1.40
2018-09-13T15:09:31.887Z,1.40
2018-09-13T15:12:04.092Z,1.53
2018-09-13T15:14:36.848Z,1.60
2018-09-13T15:17:05.824Z,1.67
2018-09-13T15:19:35.022Z,1.40
2018-09-13T15:22:04.663Z,2.30
2018-09-13T15:24:37.040Z,1.70
2018-09-13T15:27:07.256Z,1.90
2018-09-13T15:29:36.732Z,1.80
2018-09-13T15:32:07.610Z,1.60
2018-09-13T15:34:36.703Z,1.73
2018-09-13T15:37:06.745Z,1.53
2018-09-13T15:39:35.258Z,2.10
2018-09-13T15:42:05.430Z,1.93
2018-09-13T15:44:34.649Z,1.50
2018-09-13T15:47:04.006Z,1.47
2018-09-13T15:49:32.616Z,1.80
2018-09-13T15:52:01.486Z,1.97
2018-09-13T15:54:30.969Z,1.93
2018-09-13T15:57:00.526Z,1.93
2018-09-13T15:59:29.082Z,1.73
2018-09-13T16:01:58.334Z,1.47
2018-09-13T16:04:27.560Z,1.50
2018-09-13T16:06:56.120Z,2.00
2018-09-13T16:09:24.860Z,1.30
2018-09-13T16:11:53.221Z,2.00
2018-09-13T16:14:23.394Z,1.60
2018-09-13T16:16:51.965Z,1.63
2018-09-13T16:19:20.329Z,1.73
2018-09-13T16:21:49.017Z,1.67
2018-09-13T16:24:17.595Z,1.50
2018-09-13T16:26:46.386Z,1.87
2018-09-13T16:29:14.825Z,2.03
2018-09-13T16:31:43.234Z,1.50
2018-09-13T16:34:12.106Z,1.73
2018-09-13T16:36:45.024Z,2.17
2018-09-13T16:39:24.157Z,1.70
2018-09-13T16:41:57.917Z,2.00
2018-09-13T16:44:31.709Z,1.80
2018-09-13T16:47:07.309Z,1.70
2018-09-13T16:49:37.849Z,1.80
2018-09-13T16:52:06.288Z,2.00
2018-09-13T16:54:35.257Z,2.30
2018-09-13T16:57:04.786Z,2.13
2018-09-13T16:59:33.303Z,1.70
2018-09-13T17:02:02.020Z,2.17
2018-09-13T17:04:30.469Z,1.93
2018-09-13T17:06:59.115Z,1.80
2018-09-13T17:09:28.321Z,1.60
2018-09-13T17:11:56.730Z,1.70
2018-09-13T17:14:25.438Z,1.90
2018-09-13T17:16:53.904Z,1.97
2018-09-13T17:19:23.085Z,1.70
2018-09-13T17:21:51.542Z,2.17
2018-09-13T17:24:20.297Z,1.90
2018-09-13T17:26:48.871Z,1.53
2018-09-13T17:29:17.454Z,2.00
2018-09-13T17:31:46.186Z,1.93
2018-09-13T17:34:14.562Z,2.27
2018-09-13T17:36:43.314Z,2.43
2018-09-13T17:39:13.591Z,2.20
2018-09-13T17:41:43.128Z,2.70
2018-09-13T17:44:12.052Z,2.50
2018-09-13T17:46:41.287Z,2.07
2018-09-13T17:49:10.011Z,2.00
2018-09-13T17:51:38.731Z,1.70
2018-09-13T17:54:07.825Z,1.97
2018-09-13T17:56:36.283Z,1.70
2018-09-13T17:59:04.783Z,1.90
2018-09-13T18:01:33.372Z,2.07
2018-09-13T18:04:01.811Z,2.10
2018-09-13T18:06:30.678Z,1.67
2018-09-13T18:08:59.074Z,2.20
2018-09-13T18:11:27.600Z,1.50
2018-09-13T18:13:57.603Z,1.80
2018-09-13T18:16:26.080Z,2.00
2018-09-13T18:18:54.555Z,2.40
2018-09-13T18:21:22.946Z,2.17
2018-09-13T18:23:51.671Z,2.10
2018-09-13T18:26:20.152Z,1.87
2018-09-13T18:28:48.896Z,2.43
2018-09-13T18:31:17.326Z,2.80
2018-09-13T18:33:46.156Z,1.87
2018-09-13T18:36:14.786Z,2.13
2018-09-13T18:38:43.727Z,2.80
2018-09-13T18:41:12.741Z,2.17
2018-09-13T18:43:41.233Z,2.50
2018-09-13T18:46:10.473Z,2.80
2018-09-13T18:48:38.885Z,2.73
2018-09-13T18:51:07.692Z,3.30
2018-09-13T18:53:36.939Z,3.30
2018-09-13T18:56:05.737Z,3.40
2018-09-13T18:58:34.473Z,2.73
2018-09-13T19:01:03.836Z,3.10
2018-09-13T19:03:32.222Z,2.87
2018-09-13T19:06:01.154Z,3.20
2018-09-13T19:08:29.860Z,3.13
2018-09-13T19:10:58.642Z,2.90
2018-09-13T19:13:27.856Z,3.47
2018-09-13T19:15:56.553Z,3.57
2018-09-13T19:18:26.176Z,2.97
2018-09-13T19:20:54.517Z,3.40
2018-09-13T19:23:23.355Z,3.30
2018-09-13T19:25:51.902Z,3.57
2018-09-13T19:28:21.531Z,3.37
2018-09-13T19:30:50.019Z,3.60
2018-09-13T19:33:18.738Z,3.70
2018-09-13T19:35:47.130Z,3.67
2018-09-13T19:38:16.178Z,3.47
2018-09-13T19:40:45.035Z,4.20
2018-09-13T19:43:14.243Z,3.30
2018-09-13T19:45:43.187Z,3.70
2018-09-13T19:48:12.221Z,4.07
2018-09-13T19:50:41.360Z,3.30
2018-09-13T19:53:09.798Z,4.10
2018-09-13T19:55:38.572Z,3.93
2018-09-13T19:58:07.028Z,4.37
2018-09-13T20:00:35.773Z,4.13
2018-09-13T20:03:04.538Z,4.50
2018-09-13T20:05:33.323Z,4.00
2018-09-13T20:08:01.961Z,4.27
2018-09-13T20:10:31.006Z,4.40
2018-09-13T20:12:59.556Z,4.07
2018-09-13T20:15:28.304Z,4.00
2018-09-13T20:17:56.691Z,4.17
2018-09-13T20:20:25.507Z,4.07
2018-09-13T20:22:53.993Z,4.50
2018-09-13T20:25:23.127Z,4.73
2018-09-13T20:27:51.571Z,4.70
2018-09-13T20:30:20.252Z,4.70
2018-09-13T20:32:48.642Z,4.90
2018-09-13T20:35:17.718Z,4.90
2018-09-13T20:37:46.166Z,5.17
2018-09-13T20:40:15.120Z,4.47
2018-09-13T20:42:44.007Z,4.73
2018-09-13T20:45:12.901Z,5.80
2018-09-13T20:47:41.465Z,6.70
2018-09-13T20:50:10.091Z,5.33
2018-09-13T20:52:38.442Z,5.63
2018-09-13T20:55:08.189Z,6.17
2018-09-13T20:57:37.018Z,6.80
2018-09-13T21:00:06.105Z,5.33
2018-09-13T21:02:34.906Z,5.70
2018-09-13T21:05:04.019Z,6.23
2018-09-13T21:07:32.515Z,6.50
2018-09-13T21:10:01.408Z,6.67
2018-09-13T21:12:30.321Z,6.13
2018-09-13T21:14:58.697Z,7.20
2018-09-13T21:17:27.684Z,6.33
2018-09-13T21:19:56.536Z,6.03
2018-09-13T21:22:25.498Z,5.97
2018-09-13T21:24:54.254Z,7.23
2018-09-13T21:27:22.752Z,5.67
2018-09-13T21:29:51.446Z,6.13
2018-09-13T21:32:19.823Z,6.10
2018-09-13T21:34:48.533Z,6.40
2018-09-13T21:37:16.914Z,6.53
2018-09-13T21:39:49.641Z,5.90
2018-09-13T21:42:18.066Z,6.30
2018-09-13T21:44:48.297Z,6.67
2018-09-13T21:47:17.769Z,6.50
2018-09-13T21:49:46.702Z,6.63
2018-09-13T21:52:15.534Z,6.90
2018-09-13T21:54:43.936Z,7.03
2018-09-13T21:57:12.891Z,7.13
2018-09-13T21:59:41.867Z,6.83
2018-09-13T22:02:10.578Z,6.73
